Time;durP1;ratioP1;P1;durP2;ratioP2;P2;SDS_P1;SDS_P2;PMS_P1;PMS_P2;Temp;Humidity;BMP_temperature;BMP_pressure;BME280_temperature;BME280_humidity;BME280_pressure;Samples;Min_cycle;Max_cycle;Signal;HPM_P1;HPM_P2
2021/04/09 00:01:26;;;;;;;;;;;;;;;18.03;59.52;101859.88;5009985;28;1488;-63
2021/04/09 00:03:52;;;;;;;;;;;;;;;18.00;60.37;101858.25;5010670;28;1898;-62
2021/04/09 00:06:18;;;;;;;;;;;;;;;17.97;59.88;101865.63;5018446;28;1769;-60
2021/04/09 00:08:43;;;;;;;;;;;;;;;18.03;60.20;101875.94;5029846;28;1444;-60
2021/04/09 00:11:08;;;;;;;;;;;;;;;18.00;59.55;101876.13;5008801;28;1622;-60
2021/04/09 00:13:33;;;;;;;;;;;;;;;18.05;60.00;101874.00;5027270;28;1603;-60
2021/04/09 00:15:59;;;;;;;;;;;;;;;18.04;59.43;101885.66;5032670;28;1324;-63
2021/04/09 00:18:24;;;;;;;;;;;;;;;17.99;59.83;101877.94;5017457;28;1306;-63
2021/04/09 00:20:50;;;;;;;;;;;;;;;18.01;59.58;101892.09;5026739;28;1729;-62
2021/04/09 00:23:15;;;;;;;;;;;;;;;18.02;59.86;101895.63;5010106;28;1910;-63
2021/04/09 00:25:40;;;;;;;;;;;;;;;17.98;59.89;101896.78;5027607;28;1621;-62
2021/04/09 00:28:06;;;;;;;;;;;;;;;17.98;59.90;101907.47;5029013;28;1550;-60
2021/04/09 00:30:31;;;;;;;;;;;;;;;17.95;59.59;101886.28;5033182;28;1452;-63
2021/04/09 00:32:56;;;;;;;;;;;;;;;17.94;59.68;101898.78;5028766;28;1467;-60
2021/04/09 00:35:22;;;;;;;;;;;;;;;17.99;59.21;101898.50;5025598;28;1606;-63
2021/04/09 00:37:47;;;;;;;;;;;;;;;17.96;59.56;101891.53;5005166;28;1477;-60
2021/04/09 00:40:13;;;;;;;;;;;;;;;17.98;59.06;101894.09;5026677;28;1428;-62
2021/04/09 00:42:39;;;;;;;;;;;;;;;17.94;59.21;101903.28;5027213;28;1523;-62
2021/04/09 00:45:06;;;;;;;;;;;;;;;17.95;58.76;101897.84;5031765;28;1901;-62
2021/04/09 00:47:31;;;;;;;;;;;;;;;18.00;59.36;101903.75;5028380;28;1105;-60
2021/04/09 00:49:57;;;;;;;;;;;;;;;18.00;58.78;101910.91;5015820;28;1595;-60
2021/04/09 00:52:22;;;;;;;;;;;;;;;18.00;59.22;101924.28;5031461;28;1571;-60
2021/04/09 00:54:48;;;;;;;;;;;;;;;17.95;58.87;101921.94;5029135;28;1674;-62
2021/04/09 00:57:15;;;;;;;;;;;;;;;17.98;58.67;101915.50;5028776;28;830;-60
2021/04/09 00:59:41;;;;;;;;;;;;;;;18.00;59.08;101930.50;5027784;28;1508;-62
2021/04/09 01:02:07;;;;;;;;;;;;;;;17.97;58.64;101937.91;5032866;28;1476;-63
2021/04/09 01:04:32;;;;;;;;;;;;;;;17.95;58.73;101931.78;5026086;28;1967;-60
2021/04/09 01:06:57;;;;;;;;;;;;;;;17.96;58.55;101944.19;5030046;28;1464;-62
2021/04/09 01:09:23;;;;;;;;;;;;;;;17.93;59.42;101942.59;5030746;28;1462;-60
2021/04/09 01:11:48;;;;;;;;;;;;;;;17.96;58.26;101933.50;5028474;28;1489;-60
2021/04/09 01:14:14;;;;;;;;;;;;;;;17.88;58.70;101936.66;5025405;28;1555;-60
2021/04/09 01:16:48;;;;;;;;;;;;;;;17.92;58.76;101937.31;5024574;28;1381;-60
2021/04/09 01:19:32;;;;;;;;;;;;;;;17.59;58.74;101893.91;5032276;28;1484;-60
2021/04/09 01:22:01;;;;;;;;;;;;;;;17.87;58.90;101951.88;5031452;28;1563;-60
2021/04/09 01:24:26;;;;;;;;;;;;;;;17.83;58.36;101950.34;5031280;28;1918;-60
2021/04/09 01:26:58;;;;;;;;;;;;;;;17.89;59.13;101957.97;5026559;28;1601;-61
2021/04/09 01:29:41;;;;;;;;;;;;;;;17.84;58.65;101952.06;5032082;28;1465;-62
2021/04/09 01:32:10;;;;;;;;;;;;;;;17.86;58.28;101946.59;5026322;28;1311;-63
2021/04/09 01:34:56;;;;;;;;;;;;;;;17.80;58.83;101955.00;5031500;28;1717;-63
2021/04/09 01:37:23;;;;;;;;;;;;;;;17.80;59.46;101955.84;5025841;28;1549;-62
2021/04/09 01:39:52;;;;;;;;;;;;;;;17.81;59.30;101959.41;5029763;28;1533;-60
2021/04/09 01:42:18;;;;;;;;;;;;;;;17.87;58.88;101956.38;5025112;28;1547;-62
2021/04/09 01:44:46;;;;;;;;;;;;;;;17.81;58.23;101949.56;5023926;28;1882;-62
2021/04/09 01:47:13;;;;;;;;;;;;;;;17.92;58.92;101953.38;5009419;28;1268;-63
2021/04/09 01:49:39;;;;;;;;;;;;;;;17.85;58.71;101964.50;5032514;28;1573;-62
2021/04/09 01:52:07;;;;;;;;;;;;;;;17.80;59.04;101961.19;5028150;28;1429;-62
2021/04/09 01:54:33;;;;;;;;;;;;;;;17.81;58.81;101962.94;5030496;28;1573;-62
2021/04/09 01:57:00;;;;;;;;;;;;;;;17.85;58.56;101969.84;5027098;28;800;-60
2021/04/09 01:59:25;;;;;;;;;;;;;;;17.80;59.02;101966.56;5030523;28;1721;-60
2021/04/09 02:01:51;;;;;;;;;;;;;;;17.85;58.19;101975.19;5015774;23;2221;-46
2021/04/09 02:04:17;;;;;;;;;;;;;;;17.83;57.97;101963.72;4973397;28;1910;-46
2021/04/09 02:06:43;;;;;;;;;;;;;;;17.81;58.01;101967.44;4972708;28;1647;-46
2021/04/09 02:09:11;;;;;;;;;;;;;;;17.82;58.04;101967.31;4971942;28;1618;-46
2021/04/09 02:11:37;;;;;;;;;;;;;;;17.83;58.50;101974.44;5022414;23;3507;-61
2021/04/09 02:14:04;;;;;;;;;;;;;;;17.81;58.22;101975.47;5031706;28;1437;-62
2021/04/09 02:16:30;;;;;;;;;;;;;;;17.85;58.36;101982.38;5032043;28;1438;-60
2021/04/09 02:18:56;;;;;;;;;;;;;;;17.83;58.22;101981.56;5032644;28;1599;-60
2021/04/09 02:21:22;;;;;;;;;;;;;;;17.79;58.31;101988.94;5031844;28;1468;-60
2021/04/09 02:23:47;;;;;;;;;;;;;;;17.81;57.51;101986.16;5006447;28;1960;-60
2021/04/09 02:26:13;;;;;;;;;;;;;;;17.75;58.30;101994.59;5033419;28;852;-60
2021/04/09 02:28:38;;;;;;;;;;;;;;;17.76;58.25;101991.78;5014992;28;1564;-60
2021/04/09 02:31:05;;;;;;;;;;;;;;;17.77;57.77;102006.91;5032444;28;1460;-60
2021/04/09 02:33:31;;;;;;;;;;;;;;;17.86;58.31;101990.28;5023568;28;1472;-63
2021/04/09 02:35:57;;;;;;;;;;;;;;;18.01;58.19;102003.66;5032386;28;1342;-62
2021/04/09 02:38:23;;;;;;;;;;;;;;;18.53;57.27;102012.78;5014443;28;1682;-60
2021/04/09 02:40:50;;;;;;;;;;;;;;;19.41;55.14;101997.78;5030214;28;1453;-62
2021/04/09 02:43:15;;;;;;;;;;;;;;;19.37;55.44;102012.38;5000359;28;1886;-63
2021/04/09 02:45:41;;;;;;;;;;;;;;;19.32;55.98;102009.19;5022217;28;1535;-60
2021/04/09 02:48:09;;;;;;;;;;;;;;;19.30;55.96;102003.06;5011654;28;1209;-60
2021/04/09 02:50:41;;;;;;;;;;;;;;;19.66;54.98;102006.78;5031338;28;1492;-62
2021/04/09 02:53:07;;;;;;;;;;;;;;;19.62;55.05;102002.63;5032168;28;1570;-62
2021/04/09 02:55:36;;;;;;;;;;;;;;;19.50;55.60;102008.81;5018263;28;1445;-60
2021/04/09 02:58:04;;;;;;;;;;;;;;;19.51;55.41;102014.09;5031156;28;931;-60
2021/04/09 03:00:29;;;;;;;;;;;;;;;19.57;55.16;102020.84;5032008;28;1590;-58
2021/04/09 03:02:55;;;;;;;;;;;;;;;19.70;54.98;102021.72;5032349;28;1721;-61
2021/04/09 03:05:20;;;;;;;;;;;;;;;19.58;55.26;102011.84;5045804;28;1955;-61
2021/04/09 03:07:46;;;;;;;;;;;;;;;19.58;55.22;102022.59;5031984;28;1577;-62
2021/04/09 03:10:15;;;;;;;;;;;;;;;19.91;54.52;102010.41;5031710;28;1409;-61
2021/04/09 03:12:41;;;;;;;;;;;;;;;20.00;53.41;102021.34;5026109;28;1537;-61
2021/04/09 03:15:09;;;;;;;;;;;;;;;19.91;53.91;102018.47;5031761;28;1561;-63
2021/04/09 03:17:39;;;;;;;;;;;;;;;20.18;54.05;102024.50;5024343;28;726;-61
2021/04/09 03:20:05;;;;;;;;;;;;;;;20.15;53.78;102026.56;5031316;28;1537;-61
2021/04/09 03:22:30;;;;;;;;;;;;;;;20.14;53.81;102020.34;5040103;28;1468;-63
2021/04/09 03:24:55;;;;;;;;;;;;;;;20.15;54.25;102027.41;5031379;28;1914;-62
2021/04/09 03:27:21;;;;;;;;;;;;;;;20.19;53.97;102023.56;5031256;28;1561;-62
2021/04/09 03:29:46;;;;;;;;;;;;;;;20.15;54.33;102042.69;5031308;28;1561;-63
2021/04/09 03:32:12;;;;;;;;;;;;;;;20.16;54.36;102037.19;5034793;28;1538;-64
2021/04/09 03:34:37;;;;;;;;;;;;;;;20.14;54.79;102043.66;5030965;28;1598;-61
2021/04/09 03:37:03;;;;;;;;;;;;;;;20.14;54.74;102033.78;5031613;28;1424;-63
2021/04/09 03:39:28;;;;;;;;;;;;;;;20.19;54.32;102053.09;5031420;28;1428;-61
2021/04/09 03:41:54;;;;;;;;;;;;;;;20.22;54.78;102058.22;5039330;28;1500;-61
2021/04/09 03:44:19;;;;;;;;;;;;;;;20.18;54.95;102054.06;5021574;28;1889;-63
2021/04/09 03:46:44;;;;;;;;;;;;;;;20.19;55.37;102061.16;5031956;28;919;-63
2021/04/09 03:49:10;;;;;;;;;;;;;;;20.29;54.81;102065.84;5031323;28;1440;-61
2021/04/09 03:51:35;;;;;;;;;;;;;;;20.20;54.75;102070.91;5031782;28;1538;-63
2021/04/09 03:54:00;;;;;;;;;;;;;;;20.24;55.06;102055.44;5031556;28;1534;-63
2021/04/09 03:56:26;;;;;;;;;;;;;;;19.98;55.81;102065.41;5030762;28;1568;-62
2021/04/09 03:58:51;;;;;;;;;;;;;;;19.54;56.76;102066.69;5035814;28;982;-63
2021/04/09 04:01:17;;;;;;;;;;;;;;;19.21;57.67;102078.78;5034982;28;1420;-62
2021/04/09 04:03:43;;;;;;;;;;;;;;;18.97;58.25;102087.53;5034910;28;1957;-64
2021/04/09 04:06:08;;;;;;;;;;;;;;;18.84;58.82;102089.28;5029766;28;1370;-63
2021/04/09 04:08:34;;;;;;;;;;;;;;;18.69;59.44;102094.69;5034995;28;1322;-62
2021/04/09 04:10:59;;;;;;;;;;;;;;;18.54;59.37;102095.69;5034644;28;1444;-62
2021/04/09 04:13:24;;;;;;;;;;;;;;;18.43;60.17;102106.25;5029926;28;1471;-64
2021/04/09 04:15:50;;;;;;;;;;;;;;;18.35;60.13;102112.09;5035006;28;1499;-64
2021/04/09 04:18:15;;;;;;;;;;;;;;;18.28;59.76;102111.66;5035365;28;1256;-65
2021/04/09 04:20:41;;;;;;;;;;;;;;;18.26;59.92;102118.91;5033885;28;1516;-60
2021/04/09 04:23:06;;;;;;;;;;;;;;;18.23;60.07;102119.09;5045634;28;1700;-60
2021/04/09 04:25:31;;;;;;;;;;;;;;;18.19;60.14;102122.94;5034016;28;1965;-62
2021/04/09 04:27:57;;;;;;;;;;;;;;;18.21;60.94;102125.50;5032422;28;1337;-65
2021/04/09 04:30:22;;;;;;;;;;;;;;;18.41;60.25;102127.78;5034617;28;1546;-63
2021/04/09 04:32:48;;;;;;;;;;;;;;;18.77;58.73;102128.16;5034825;28;1450;-63
2021/04/09 04:35:13;;;;;;;;;;;;;;;18.58;59.50;102134.75;5033898;28;1708;-62
2021/04/09 04:37:39;;;;;;;;;;;;;;;18.39;60.21;102134.19;5033723;28;1584;-62
2021/04/09 04:40:04;;;;;;;;;;;;;;;18.28;59.75;102138.44;5034349;28;1433;-62
2021/04/09 04:42:30;;;;;;;;;;;;;;;18.17;60.40;102134.69;5034604;28;1437;-62
2021/04/09 04:44:55;;;;;;;;;;;;;;;18.13;61.04;102141.22;5034252;28;1886;-64
2021/04/09 04:47:21;;;;;;;;;;;;;;;18.07;60.78;102142.44;5035099;28;836;-63
2021/04/09 04:49:46;;;;;;;;;;;;;;;18.08;60.90;102153.06;5034217;28;1846;-60
2021/04/09 04:52:11;;;;;;;;;;;;;;;18.16;60.57;102165.09;5033464;28;1609;-61
2021/04/09 04:54:37;;;;;;;;;;;;;;;18.29;60.64;102145.47;5025814;28;1563;-66
2021/04/09 04:57:02;;;;;;;;;;;;;;;18.89;58.49;102140.78;5042911;28;2283;-66
2021/04/09 04:59:27;;;;;;;;;;;;;;;20.58;53.85;102141.63;5033931;28;1273;-59
2021/04/09 05:01:53;;;;;;;;;;;;;;;21.63;51.75;102148.13;5033367;28;1460;-60
2021/04/09 05:04:18;;;;;;;;;;;;;;;22.15;49.68;102146.72;5033599;28;1898;-61
2021/04/09 05:06:44;;;;;;;;;;;;;;;21.64;51.39;102158.75;5030686;28;1424;-69
2021/04/09 05:09:09;;;;;;;;;;;;;;;21.67;48.47;102163.06;5032336;28;1687;-59
2021/04/09 05:11:35;;;;;;;;;;;;;;;22.04;49.16;102170.94;5029404;28;1494;-69
2021/04/09 05:14:00;;;;;;;;;;;;;;;22.17;48.63;102162.75;5028808;28;1373;-69
2021/04/09 05:16:26;;;;;;;;;;;;;;;22.18;48.94;102177.94;5028762;28;1440;-58
2021/04/09 05:18:51;;;;;;;;;;;;;;;21.69;50.01;102174.59;5024790;28;1408;-64
2021/04/09 05:21:16;;;;;;;;;;;;;;;20.74;52.69;102170.97;5027768;28;1455;-59
2021/04/09 05:23:42;;;;;;;;;;;;;;;20.00;54.41;102186.97;5027215;28;1934;-63
2021/04/09 05:26:07;;;;;;;;;;;;;;;19.58;55.64;102188.94;5031619;28;1685;-64
2021/04/09 05:28:32;;;;;;;;;;;;;;;19.37;56.34;102181.38;5031092;28;1744;-60
2021/04/09 05:30:58;;;;;;;;;;;;;;;19.30;56.62;102189.94;5032282;28;1405;-57
2021/04/09 05:33:24;;;;;;;;;;;;;;;19.40;56.77;102196.41;5033373;28;1182;-65
2021/04/09 05:35:49;;;;;;;;;;;;;;;19.47;56.58;102197.72;5033006;28;1743;-61
2021/04/09 05:38:14;;;;;;;;;;;;;;;19.62;56.52;102195.81;5033552;28;1487;-58
2021/04/09 05:40:40;;;;;;;;;;;;;;;19.64;56.44;102204.63;5030331;28;1668;-60
2021/04/09 05:43:07;;;;;;;;;;;;;;;19.63;56.65;102209.13;5033029;28;1507;-60
2021/04/09 05:45:32;;;;;;;;;;;;;;;19.63;56.65;102208.25;5033316;28;1947;-62
2021/04/09 05:48:03;;;;;;;;;;;;;;;19.68;56.69;102214.19;5031928;28;1602;-62
2021/04/09 05:50:28;;;;;;;;;;;;;;;19.65;56.55;102209.00;5029879;28;1744;-63
2021/04/09 05:52:54;;;;;;;;;;;;;;;19.68;56.86;102204.31;5028128;28;1440;-61
2021/04/09 05:55:19;;;;;;;;;;;;;;;19.65;56.57;102217.06;5029147;28;1261;-62
2021/04/09 05:57:45;;;;;;;;;;;;;;;19.71;56.85;102218.47;5032964;28;1272;-63
2021/04/09 06:00:12;;;;;;;;;;;;;;;19.65;56.83;102219.75;5030993;28;1685;-60
2021/04/09 06:02:37;;;;;;;;;;;;;;;19.65;57.25;102217.91;5031810;28;1481;-67
2021/04/09 06:05:03;;;;;;;;;;;;;;;19.57;57.40;102214.91;5035574;28;1957;-63
2021/04/09 06:07:28;;;;;;;;;;;;;;;19.53;57.65;102224.13;5030562;28;1608;-61
2021/04/09 06:09:53;;;;;;;;;;;;;;;19.38;58.39;102222.50;5031033;28;1518;-60
2021/04/09 06:12:19;;;;;;;;;;;;;;;19.08;56.19;102224.41;5032671;28;1558;-62
2021/04/09 06:14:45;;;;;;;;;;;;;;;19.11;58.15;102230.53;5041767;28;1545;-61
2021/04/09 06:17:10;;;;;;;;;;;;;;;19.12;58.26;102232.25;5033129;28;816;-60
2021/04/09 06:19:35;;;;;;;;;;;;;;;19.20;58.44;102244.19;5032115;28;1657;-63
2021/04/09 06:22:01;;;;;;;;;;;;;;;19.07;58.77;102241.44;5032580;28;1550;-61
2021/04/09 06:24:26;;;;;;;;;;;;;;;19.01;58.99;102244.53;5037114;28;1977;-63
2021/04/09 06:26:52;;;;;;;;;;;;;;;19.01;59.03;102249.03;5032569;28;1531;-64
2021/04/09 06:29:17;;;;;;;;;;;;;;;18.97;59.43;102243.00;5048168;28;1691;-59
2021/04/09 06:31:42;;;;;;;;;;;;;;;18.99;59.36;102249.13;5043037;28;1312;-61
2021/04/09 06:34:08;;;;;;;;;;;;;;;18.98;59.49;102244.75;5022476;28;1503;-59
2021/04/09 06:36:33;;;;;;;;;;;;;;;18.99;59.59;102248.28;5025470;28;1436;-62
2021/04/09 06:38:59;;;;;;;;;;;;;;;18.97;59.59;102251.06;5024636;28;1263;-62
2021/04/09 06:41:24;;;;;;;;;;;;;;;18.92;59.90;102244.25;5026161;28;1359;-63
2021/04/09 06:43:49;;;;;;;;;;;;;;;18.89;59.61;102261.41;5026462;28;1923;-62
2021/04/09 06:46:15;;;;;;;;;;;;;;;18.99;61.09;102272.41;5025228;28;1460;-62
2021/04/09 06:48:41;;;;;;;;;;;;;;;19.05;61.90;102262.13;5041512;28;1389;-61
2021/04/09 06:51:07;;;;;;;;;;;;;;;19.12;62.43;102267.09;5026198;28;1509;-63
2021/04/09 06:53:33;;;;;;;;;;;;;;;19.21;62.66;102271.88;5034167;28;1458;-63
2021/04/09 06:55:59;;;;;;;;;;;;;;;19.25;62.22;102273.38;5024239;28;1292;-63
2021/04/09 06:58:24;;;;;;;;;;;;;;;18.97;62.48;102226.06;5025880;28;1436;-58
2021/04/09 07:00:51;;;;;;;;;;;;;;;19.28;62.38;102271.38;5025205;28;1443;-63
2021/04/09 07:03:16;;;;;;;;;;;;;;;19.30;62.10;102275.75;5026265;28;1577;-62
2021/04/09 07:05:41;;;;;;;;;;;;;;;19.28;62.24;102278.56;5033348;28;1898;-56
2021/04/09 07:08:06;;;;;;;;;;;;;;;19.33;63.24;102279.09;5023282;28;1591;-60
2021/04/09 07:10:32;;;;;;;;;;;;;;;19.42;63.67;102286.56;5024267;28;1570;-62
2021/04/09 07:13:04;;;;;;;;;;;;;;;19.47;63.31;102287.09;5024743;28;1515;-61
2021/04/09 07:15:36;;;;;;;;;;;;;;;19.51;63.41;102284.22;5026906;28;1511;-63
2021/04/09 07:18:03;;;;;;;;;;;;;;;19.46;63.59;102298.81;5025532;28;1222;-62
2021/04/09 07:20:32;;;;;;;;;;;;;;;19.45;63.67;102291.72;5028561;28;1653;-61
2021/04/09 07:22:58;;;;;;;;;;;;;;;19.45;62.70;102274.75;5023171;28;1495;-61
2021/04/09 07:25:29;;;;;;;;;;;;;;;19.43;65.55;102293.63;5026919;28;1914;-62
2021/04/09 07:28:13;;;;;;;;;;;;;;;19.48;66.02;102290.66;5025831;28;1511;-57
2021/04/09 07:30:39;;;;;;;;;;;;;;;19.50;64.56;102283.38;5024957;28;1440;-60
2021/04/09 07:33:10;;;;;;;;;;;;;;;19.22;64.73;102295.91;5030305;28;1589;-59
2021/04/09 07:35:49;;;;;;;;;;;;;;;19.30;64.05;102287.38;5019904;28;11082;-59
2021/04/09 07:38:18;;;;;;;;;;;;;;;19.21;62.46;102294.19;5029609;28;1497;-60
2021/04/09 07:40:49;;;;;;;;;;;;;;;19.16;61.17;102290.06;5028367;28;1563;-61
2021/04/09 07:43:16;;;;;;;;;;;;;;;19.11;61.25;102292.19;5028904;28;1445;-58
2021/04/09 07:45:41;;;;;;;;;;;;;;;19.06;60.52;102284.47;5029730;28;1901;-61
2021/04/09 07:48:06;;;;;;;;;;;;;;;18.02;57.35;102299.78;5021596;28;1609;-58
2021/04/09 07:50:39;;;;;;;;;;;;;;;18.40;60.35;102292.13;5028864;28;1468;-60
2021/04/09 07:53:06;;;;;;;;;;;;;;;18.66;58.78;102298.53;5028442;28;1506;-60
2021/04/09 07:55:32;;;;;;;;;;;;;;;18.84;58.90;102298.34;5029135;28;1593;-57
2021/04/09 07:58:13;;;;;;;;;;;;;;;18.90;57.35;102302.47;5029773;28;1308;-59
2021/04/09 08:00:39;;;;;;;;;;;;;;;18.54;47.34;102293.06;5027705;28;1544;-57
2021/04/09 08:03:04;;;;;;;;;;;;;;;18.21;49.09;102305.75;5029005;28;1443;-61
2021/04/09 08:05:30;;;;;;;;;;;;;;;18.14;49.45;102291.00;5024366;28;1898;-59
2021/04/09 08:07:55;;;;;;;;;;;;;;;18.05;51.70;102302.28;5024974;28;1642;-57
2021/04/09 08:10:28;;;;;;;;;;;;;;;18.14;44.46;102298.19;5026975;28;1539;-58
2021/04/09 08:12:54;;;;;;;;;;;;;;;18.07;46.62;102321.81;5025092;28;1487;-57
2021/04/09 08:15:21;;;;;;;;;;;;;;;17.91;48.75;102304.94;5025538;28;1616;-58
2021/04/09 08:17:56;;;;;;;;;;;;;;;17.62;48.44;102308.31;5026914;28;1226;-57
2021/04/09 08:20:22;;;;;;;;;;;;;;;17.78;47.39;102305.59;5026526;28;1564;-57
2021/04/09 08:22:48;;;;;;;;;;;;;;;17.95;50.70;102312.69;5027289;28;1334;-59
2021/04/09 08:25:14;;;;;;;;;;;;;;;18.09;51.48;102315.41;5024891;28;1910;-57
2021/04/09 08:27:39;;;;;;;;;;;;;;;18.00;48.84;102315.94;5027173;28;1541;-67
2021/04/09 08:30:05;;;;;;;;;;;;;;;17.62;51.95;102261.97;5024860;28;1268;-59
2021/04/09 08:32:32;;;;;;;;;;;;;;;18.00;49.96;102315.06;5022359;28;1436;-62
2021/04/09 08:34:58;;;;;;;;;;;;;;;18.13;50.02;102300.00;5017802;28;1398;-60
2021/04/09 08:37:23;;;;;;;;;;;;;;;18.27;51.66;102316.09;5026492;28;1424;-59
2021/04/09 08:39:50;;;;;;;;;;;;;;;18.31;51.82;102313.25;5025614;28;1271;-59
2021/04/09 08:42:15;;;;;;;;;;;;;;;18.30;50.41;102315.03;5025298;28;1480;-58
2021/04/09 08:44:41;;;;;;;;;;;;;;;18.32;48.74;102309.59;5026131;28;1960;-57
2021/04/09 08:47:07;;;;;;;;;;;;;;;18.48;48.50;102308.59;5026158;28;1432;-55
2021/04/09 08:49:33;;;;;;;;;;;;;;;18.12;50.96;102311.66;5026441;28;1443;-57
2021/04/09 08:52:03;;;;;;;;;;;;;;;18.07;50.19;102316.44;5024982;28;1588;-57
2021/04/09 08:54:29;;;;;;;;;;;;;;;17.95;49.79;102311.84;5042832;28;1464;-62
2021/04/09 08:56:55;;;;;;;;;;;;;;;18.13;50.23;102316.09;5030296;28;1370;-56
2021/04/09 08:59:50;;;;;;;;;;;;;;;18.31;49.86;102303.41;5031366;28;1439;-64
2021/04/09 09:02:17;;;;;;;;;;;;;;;18.37;49.08;102308.38;5025337;28;1464;-60
2021/04/09 09:05:12;;;;;;;;;;;;;;;18.36;50.20;102319.16;5031087;28;2577;-61
2021/04/09 09:07:43;;;;;;;;;;;;;;;18.42;48.97;102319.69;5014854;28;1503;-61
2021/04/09 09:10:27;;;;;;;;;;;;;;;18.45;49.57;102299.88;5028125;28;1483;-56
2021/04/09 09:13:05;;;;;;;;;;;;;;;18.28;49.93;102320.53;5030238;28;1459;-56
2021/04/09 09:15:46;;;;;;;;;;;;;;;18.48;50.29;102313.06;5023668;28;1608;-57
2021/04/09 09:18:23;;;;;;;;;;;;;;;18.56;50.43;102308.13;5024250;28;1267;-60
2021/04/09 09:20:59;;;;;;;;;;;;;;;18.44;50.60;102292.78;5028603;28;1341;-57
2021/04/09 09:23:25;;;;;;;;;;;;;;;18.44;50.57;102303.50;5030878;28;1989;-59
2021/04/09 09:25:50;;;;;;;;;;;;;;;18.34;49.84;102300.50;5030960;28;1437;-60
2021/04/09 09:28:16;;;;;;;;;;;;;;;18.35;49.12;102298.72;5031455;28;1681;-56
2021/04/09 09:30:42;;;;;;;;;;;;;;;18.43;49.99;102283.88;5029585;28;1601;-56
2021/04/09 09:33:25;;;;;;;;;;;;;;;18.61;49.46;102307.81;5031158;28;1358;-59
2021/04/09 09:36:09;;;;;;;;;;;;;;;18.55;49.62;102306.38;5029008;28;1525;-56
2021/04/09 09:38:45;;;;;;;;;;;;;;;18.40;49.65;102286.78;5028955;28;1426;-56
2021/04/09 09:41:10;;;;;;;;;;;;;;;18.42;51.67;102292.00;5031570;28;870;-62
2021/04/09 09:43:36;;;;;;;;;;;;;;;18.44;51.36;102295.47;5025999;28;1890;-57
2021/04/09 09:46:02;;;;;;;;;;;;;;;18.29;51.11;102295.44;5029797;28;1476;-61
2021/04/09 09:48:28;;;;;;;;;;;;;;;18.36;51.59;102295.06;5030694;28;1555;-59
2021/04/09 09:50:53;;;;;;;;;;;;;;;18.32;52.11;102282.81;5029351;28;1509;-57
2021/04/09 09:53:18;;;;;;;;;;;;;;;18.19;50.77;102282.72;5028504;28;1553;-59
2021/04/09 09:55:45;;;;;;;;;;;;;;;18.04;50.91;102295.19;5030852;28;1664;-59
2021/04/09 09:58:11;;;;;;;;;;;;;;;18.00;52.41;102291.00;5028189;28;1407;-56
2021/04/09 10:01:07;;;;;;;;;;;;;;;17.81;51.46;102296.56;5027206;28;1523;-62
2021/04/09 10:03:36;;;;;;;;;;;;;;;17.73;48.27;102286.31;5026089;28;1886;-61
2021/04/09 10:06:05;;;;;;;;;;;;;;;17.80;50.80;102301.03;5030021;28;1307;-57
2021/04/09 10:08:33;;;;;;;;;;;;;;;17.83;50.37;102294.66;5030412;28;1625;-56
2021/04/09 10:11:06;;;;;;;;;;;;;;;17.93;50.24;102292.31;5030406;28;1491;-57
2021/04/09 10:13:38;;;;;;;;;;;;;;;18.06;47.09;102295.97;5029347;28;1422;-56
2021/04/09 10:16:09;;;;;;;;;;;;;;;18.13;48.71;102285.78;5028670;28;1448;-57
2021/04/09 10:18:35;;;;;;;;;;;;;;;18.06;49.70;102288.81;5022114;28;1535;-56
2021/04/09 10:21:27;;;;;;;;;;;;;;;18.06;48.65;102288.81;5028170;28;1310;-62
2021/04/09 10:24:13;;;;;;;;;;;;;;;18.03;50.17;102283.66;4999997;28;1917;-57
2021/04/09 10:26:39;;;;;;;;;;;;;;;17.88;48.84;102293.44;5029815;28;1527;-58
2021/04/09 10:29:18;;;;;;;;;;;;;;;18.03;51.16;102277.44;5027369;28;1265;-55
2021/04/09 10:31:43;;;;;;;;;;;;;;;18.16;50.39;102289.09;5027028;28;1200;-57
2021/04/09 10:34:08;;;;;;;;;;;;;;;18.18;50.35;102289.88;5030323;28;1640;-58
2021/04/09 10:36:34;;;;;;;;;;;;;;;18.13;50.38;102281.28;5028741;28;1517;-64
2021/04/09 10:39:00;;;;;;;;;;;;;;;18.15;50.45;102275.84;5029671;28;1428;-56
2021/04/09 10:41:33;;;;;;;;;;;;;;;18.14;49.80;102293.69;5028849;28;1610;-57
2021/04/09 10:44:00;;;;;;;;;;;;;;;18.11;50.88;102279.66;5028358;28;1975;-56
2021/04/09 10:46:26;;;;;;;;;;;;;;;18.07;50.49;102277.16;5029853;28;1463;-57
2021/04/09 10:48:57;;;;;;;;;;;;;;;18.19;50.17;102283.56;5020852;28;1432;-56
2021/04/09 10:51:26;;;;;;;;;;;;;;;18.29;50.37;102273.16;5025321;28;1484;-60
2021/04/09 10:53:53;;;;;;;;;;;;;;;18.37;50.07;102272.69;5027665;28;1542;-57
2021/04/09 10:56:18;;;;;;;;;;;;;;;18.37;50.65;102270.88;5030814;28;1353;-57
2021/04/09 10:58:46;;;;;;;;;;;;;;;18.39;51.32;102268.97;5030186;28;1441;-58
2021/04/09 11:01:11;;;;;;;;;;;;;;;18.38;51.97;102251.19;5030393;28;1412;-57
2021/04/09 11:03:37;;;;;;;;;;;;;;;18.40;51.97;102254.63;5030171;28;1963;-60
2021/04/09 11:06:03;;;;;;;;;;;;;;;18.51;50.79;102251.28;5028899;28;1190;-56
2021/04/09 11:08:35;;;;;;;;;;;;;;;18.46;51.65;102250.69;5026856;28;1495;-56
2021/04/09 11:11:04;;;;;;;;;;;;;;;18.47;52.76;102261.31;5028952;28;1471;-58
2021/04/09 11:13:40;;;;;;;;;;;;;;;18.48;52.19;102252.34;5028456;28;1421;-56
2021/04/09 11:16:06;;;;;;;;;;;;;;;18.40;52.86;102264.47;5028582;28;1495;-57
2021/04/09 11:18:51;;;;;;;;;;;;;;;18.40;52.96;102259.09;5027507;28;1574;-56
2021/04/09 11:21:36;;;;;;;;;;;;;;;18.45;53.36;102255.19;5027088;28;1600;-60
2021/04/09 11:24:01;;;;;;;;;;;;;;;18.51;53.49;102253.94;5028795;28;1918;-55
2021/04/09 11:26:27;;;;;;;;;;;;;;;18.50;53.83;102260.25;5029402;28;1452;-56
2021/04/09 11:28:53;;;;;;;;;;;;;;;18.54;53.46;102256.41;5028463;28;1303;-60
2021/04/09 11:31:22;;;;;;;;;;;;;;;18.52;53.72;102252.97;5028567;28;1668;-55
2021/04/09 11:33:47;;;;;;;;;;;;;;;18.46;54.17;102237.28;5028092;28;1484;-57
2021/04/09 11:36:36;;;;;;;;;;;;;;;18.50;53.83;102233.47;5027716;28;1512;-57
2021/04/09 11:39:08;;;;;;;;;;;;;;;18.52;54.16;102250.28;5029240;28;1917;-55
2021/04/09 11:41:35;;;;;;;;;;;;;;;18.61;54.43;102240.84;5029246;28;1595;-56
2021/04/09 11:44:21;;;;;;;;;;;;;;;18.59;54.36;102242.75;5029392;28;1961;-55
2021/04/09 11:46:46;;;;;;;;;;;;;;;18.59;54.37;102240.94;5027543;28;1262;-59
2021/04/09 11:49:11;;;;;;;;;;;;;;;18.60;54.34;102236.41;5027196;28;1479;-58
2021/04/09 11:51:36;;;;;;;;;;;;;;;18.57;54.56;102234.81;5028808;28;1471;-57
2021/04/09 11:54:03;;;;;;;;;;;;;;;18.58;54.94;102236.53;5029479;28;1503;-59
2021/04/09 11:56:45;;;;;;;;;;;;;;;18.57;54.70;102234.81;5028586;28;1279;-56
2021/04/09 11:59:20;;;;;;;;;;;;;;;18.59;54.75;102240.94;5027223;28;1440;-56
2021/04/09 12:01:47;;;;;;;;;;;;;;;18.65;55.34;102232.50;5025103;28;1534;-55
2021/04/09 12:04:30;;;;;;;;;;;;;;;18.69;55.31;102238.53;5022920;28;1906;-55
2021/04/09 12:06:56;;;;;;;;;;;;;;;18.64;55.14;102225.44;5019868;28;1537;-55
2021/04/09 12:09:21;;;;;;;;;;;;;;;18.56;55.32;102233.09;5027033;28;1470;-55
2021/04/09 12:11:46;;;;;;;;;;;;;;;18.52;55.32;102242.25;5027605;28;1261;-54
2021/04/09 12:14:12;;;;;;;;;;;;;;;18.47;55.99;102231.84;5029457;28;1356;-56
2021/04/09 12:16:37;;;;;;;;;;;;;;;18.49;55.52;102229.06;5027876;28;1464;-55
2021/04/09 12:19:02;;;;;;;;;;;;;;;18.51;55.66;102223.63;5031898;28;1452;-55
2021/04/09 12:21:28;;;;;;;;;;;;;;;18.57;56.04;102224.09;5032156;28;1464;-56
2021/04/09 12:23:53;;;;;;;;;;;;;;;18.59;55.07;102221.31;5031498;28;1914;-56
2021/04/09 12:26:19;;;;;;;;;;;;;;;18.62;55.65;102213.06;5031992;28;1209;-56
2021/04/09 12:28:44;;;;;;;;;;;;;;;18.59;55.22;102215.97;5031687;28;1633;-55
2021/04/09 12:31:09;;;;;;;;;;;;;;;18.61;55.79;102208.69;5027788;28;1539;-56
2021/04/09 12:33:34;;;;;;;;;;;;;;;18.62;55.60;102205.03;5031522;28;1527;-57
2021/04/09 12:36:00;;;;;;;;;;;;;;;18.58;55.88;102207.06;5032533;28;1122;-57
2021/04/09 12:38:25;;;;;;;;;;;;;;;18.57;56.19;102199.97;5031072;28;1648;-60
2021/04/09 12:40:51;;;;;;;;;;;;;;;18.54;55.92;102188.59;5030827;28;1606;-64
2021/04/09 12:43:16;;;;;;;;;;;;;;;18.52;55.77;102194.03;5030838;28;1464;-57
2021/04/09 12:45:41;;;;;;;;;;;;;;;18.46;56.39;102183.72;5030267;28;1881;-63
2021/04/09 12:48:07;;;;;;;;;;;;;;;18.46;56.59;102202.47;5041874;28;1326;-56
2021/04/09 12:50:32;;;;;;;;;;;;;;;18.52;56.97;102199.41;5029290;28;1488;-56